Airfield :
LOGIN :

Register | Disclaimer

   EN    FR    IT 

 










Legend :    VFR   Marginal VFR   IFR   Intensive IFR   Very Intensive IFR
Visi :
Ceiling :
>= 8 km
>= 3000ft
5 to 8 km
1000 to 3000 ft
1500m to 5 km
500 to 1000 ft
800 to 1500m
200 to 500 ft
< 800m
< 200 ft
Symbols :   Thunderstorms  Fog  Heavy snow  Heavy precipitations  Wind > 20 kt
SIGMETs :     Misc.  Thunderstorms  Icing  Turbulence  Mountain Waves  Volcanic Ashes







- Airport Elevation : 26 ft
- IATA code : SYY
- Download approach charts


EGPO - Stornoway

CURRENT METAR :
  • 230920Z 18005KT 2500 DZ SCT003 BKN005 13/13 Q1010

EXPIRED METARs :
  • 230850Z 18005KT 2500 -RADZ SCT003 SCT004 BKN006 13/13 Q1010
  • 230820Z 21003KT 8000 FEW004 SCT006 BKN009 14/13 Q1010
  • 230750Z VRB03KT 9999 FEW005 SCT009 BKN024 14/13 Q1010
  • 230720Z 26005KT 9999 FEW003 SCT007 BKN015 13/12 Q1010
  • 230650Z 26002KT 9999 FEW003 SCT007 BKN015 13/12 Q1010

TAF AMD TAF EGPO
Valid from the 23 at 09:00 until the 23 at 18:00 UTC


230942Z 2309/2318 23008KT 9999 SCT015
TEMPO 2309/2311 2500 RADZ BR BKN004
PROB30
TEMPO 2311/2316 BKN014
TEMPO 2316/2318 6000 RA BKN010
ATIS : +44 1851 707 444
No reported NOTAMs for that airfield.



MET'MAP, your aeronautical weather chart ! - Copyright ORBIFLY December 2007 - Disclaimer

ORBIFLY MET'MAP TEAM :

Programming & Development : Alexandra Zaïnal
Concept & Development : Baudouin d'Aumeries
Co-Development & Prog : Marc-Olivier Méhu
Technical & hardware support : Manuel Goepfert

Contact : metmap@orbifly.com




SOURCES & CREDITS :

   NOAA